Terminal Aerodrome Forecast
Issued by NWS

Home | Current Version | Previous Version | Text Only | Print | Product List | Glossary Off
Versions: 1 2 3 4 5 6 7 8 9 10 11 12 13 14 15 16 17 18 19 20 21 22 23 24 25 26 27 28 29 30

523
FTUS43 KTOP 270520
TAFFOE
TAF
KFOE 270520Z 2706/2806 12005KT P6SM SCT060 BKN150
     FM270900 13003KT P6SM VCTS SCT020 BKN035CB
     FM271400 16007KT P6SM SCT045=

USA.gov is the U.S. government's official web portal to all federal, state and local government web resources and services.